Time;durP1;ratioP1;P1;durP2;ratioP2;P2;SDS_P1;SDS_P2;PMS_P1;PMS_P2;Temp;Humidity;BMP_temperature;BMP_pressure;BME280_temperature;BME280_humidity;BME280_pressure;Samples;Min_cycle;Max_cycle;Signal;HPM_P1;HPM_P2
2023/06/27 00:01:41;;;;;;;10.63;7.70;;;;;;;;;;5070790;28;20514;-77
2023/06/27 00:04:07;;;;;;;10.10;7.68;;;;;;;;;;5080180;28;20028;-78
2023/06/27 00:06:32;;;;;;;10.95;8.48;;;;;;;;;;5079429;28;20024;-78
2023/06/27 00:08:57;;;;;;;8.25;7.45;;;;;;;;;;5079910;28;20651;-76
2023/06/27 00:11:23;;;;;;;11.65;7.32;;;;;;;;;;5079040;28;20720;-78
2023/06/27 00:13:49;;;;;;;8.65;7.18;;;;;;;;;;5080311;28;20127;-76
2023/06/27 00:16:14;;;;;;;9.70;7.70;;;;;;;;;;5067495;28;20028;-77
2023/06/27 00:18:40;;;;;;;14.55;6.97;;;;;;;;;;5077003;28;20020;-75
2023/06/27 00:21:06;;;;;;;9.38;7.82;;;;;;;;;;5077504;28;20048;-76
2023/06/27 00:23:34;;;;;;;7.40;6.70;;;;;;;;;;5081045;28;20035;-76
2023/06/27 00:26:00;;;;;;;8.55;7.40;;;;;;;;;;5079971;28;20032;-76
2023/06/27 00:28:26;;;;;;;11.50;7.90;;;;;;;;;;5077606;28;20864;-76
2023/06/27 00:30:52;;;;;;;8.95;7.60;;;;;;;;;;5066698;28;20187;-78
2023/06/27 00:33:17;;;;;;;8.65;7.05;;;;;;;;;;5078092;28;20193;-77
2023/06/27 00:35:42;;;;;;;8.52;7.63;;;;;;;;;;5068186;28;20027;-76
2023/06/27 00:38:08;;;;;;;10.38;7.95;;;;;;;;;;5078017;28;20040;-78
2023/06/27 00:40:33;;;;;;;9.45;7.60;;;;;;;;;;5072372;28;20049;-76
2023/06/27 00:42:58;;;;;;;12.38;8.15;;;;;;;;;;5076819;28;20031;-77
2023/06/27 00:45:24;;;;;;;10.80;7.57;;;;;;;;;;5067388;28;20027;-77
2023/06/27 00:47:51;;;;;;;10.93;7.55;;;;;;;;;;5076251;28;20032;-76
2023/06/27 00:50:17;;;;;;;13.90;7.90;;;;;;;;;;5079717;28;20028;-78
2023/06/27 00:52:42;;;;;;;10.18;7.78;;;;;;;;;;5081640;28;20688;-77
2023/06/27 00:55:08;;;;;;;11.60;7.45;;;;;;;;;;5079539;28;20504;-77
2023/06/27 00:57:34;;;;;;;9.98;7.80;;;;;;;;;;5079056;28;20032;-77
2023/06/27 00:59:59;;;;;;;8.27;7.15;;;;;;;;;;5073527;28;20047;-77
2023/06/27 01:02:24;;;;;;;8.07;7.28;;;;;;;;;;5073775;28;20085;-77
2023/06/27 01:04:51;;;;;;;11.52;7.53;;;;;;;;;;5080093;28;20024;-78
2023/06/27 01:07:22;;;;;;;9.82;7.78;;;;;;;;;;5079383;28;20027;-78
2023/06/27 01:09:51;;;;;;;10.00;7.55;;;;;;;;;;5078981;28;20055;-77
2023/06/27 01:12:25;;;;;;;11.68;8.38;;;;;;;;;;5079856;28;20434;-77
2023/06/27 01:14:53;;;;;;;11.57;8.25;;;;;;;;;;5075690;28;20028;-78
2023/06/27 01:17:18;;;;;;;11.77;7.53;;;;;;;;;;5072547;28;20036;-77
2023/06/27 01:19:45;;;;;;;10.05;7.57;;;;;;;;;;5080636;28;20335;-80
2023/06/27 01:22:15;;;;;;;13.63;8.27;;;;;;;;;;5083128;28;20481;-77
2023/06/27 01:24:40;;;;;;;9.68;8.73;;;;;;;;;;5072458;28;20440;-79
2023/06/27 01:27:06;;;;;;;11.52;8.60;;;;;;;;;;5084982;28;20063;-79
2023/06/27 01:29:32;;;;;;;10.35;8.20;;;;;;;;;;5081113;28;20540;-79
2023/06/27 01:32:16;;;;;;;9.20;7.72;;;;;;;;;;5075617;28;20111;-80
2023/06/27 01:34:44;;;;;;;9.27;8.13;;;;;;;;;;5071990;28;20073;-77
2023/06/27 01:37:12;;;;;;;10.63;7.47;;;;;;;;;;5082335;28;20062;-77
2023/06/27 01:39:41;;;;;;;8.18;7.22;;;;;;;;;;5082200;28;20037;-77
2023/06/27 01:42:10;;;;;;;10.05;8.40;;;;;;;;;;5082306;28;20020;-78
2023/06/27 01:44:35;;;;;;;19.10;8.60;;;;;;;;;;5076593;28;20456;-79
2023/06/27 01:47:01;;;;;;;9.85;7.20;;;;;;;;;;5073876;28;20025;-77
2023/06/27 01:49:26;;;;;;;13.02;8.63;;;;;;;;;;5084950;28;20025;-77
2023/06/27 01:51:54;;;;;;;10.57;8.02;;;;;;;;;;5081583;28;20497;-78
2023/06/27 01:54:19;;;;;;;10.25;7.65;;;;;;;;;;5071175;28;20047;-78
2023/06/27 01:56:45;;;;;;;11.07;7.95;;;;;;;;;;5083655;28;20502;-77
2023/06/27 01:59:10;;;;;;;10.30;7.97;;;;;;;;;;5074371;28;20056;-79
2023/06/27 02:01:36;;;;;;;12.38;8.45;;;;;;;;;;5073938;28;20041;-79
2023/06/27 02:04:03;;;;;;;12.18;7.88;;;;;;;;;;5078282;28;20040;-78
2023/06/27 02:06:28;;;;;;;10.13;7.53;;;;;;;;;;5073929;28;20020;-76
2023/06/27 02:08:53;;;;;;;13.88;7.22;;;;;;;;;;5082848;28;20374;-79
2023/06/27 02:11:19;;;;;;;10.68;8.18;;;;;;;;;;5080285;28;20059;-78
2023/06/27 02:13:44;;;;;;;9.38;7.57;;;;;;;;;;5074680;28;20048;-76
2023/06/27 02:16:11;;;;;;;12.50;7.70;;;;;;;;;;5072361;28;20059;-78
2023/06/27 02:18:36;;;;;;;10.88;7.47;;;;;;;;;;5080133;28;20035;-78
2023/06/27 02:21:02;;;;;;;9.38;7.45;;;;;;;;;;5083606;28;20386;-78
2023/06/27 02:23:27;;;;;;;8.75;7.93;;;;;;;;;;5083863;28;20067;-78
2023/06/27 02:25:52;;;;;;;9.48;8.55;;;;;;;;;;5073807;28;20035;-79
2023/06/27 02:28:18;;;;;;;12.25;7.90;;;;;;;;;;5082185;28;20081;-78
2023/06/27 02:30:43;;;;;;;11.52;7.90;;;;;;;;;;5074783;28;20043;-77
2023/06/27 02:33:08;;;;;;;9.00;8.02;;;;;;;;;;5080752;28;20043;-77
2023/06/27 02:35:34;;;;;;;12.93;8.10;;;;;;;;;;5082890;28;20052;-79
2023/06/27 02:37:59;;;;;;;11.95;8.38;;;;;;;;;;5082275;28;20042;-78
2023/06/27 02:40:24;;;;;;;9.95;8.20;;;;;;;;;;5081376;28;20024;-78
2023/06/27 02:42:50;;;;;;;10.48;8.02;;;;;;;;;;5082373;28;21385;-78
2023/06/27 02:45:16;;;;;;;9.13;8.18;;;;;;;;;;5072686;28;20043;-79
2023/06/27 02:47:41;;;;;;;10.18;8.93;;;;;;;;;;5077849;28;20015;-77
2023/06/27 02:50:07;;;;;;;9.10;8.20;;;;;;;;;;5079559;28;20077;-78
2023/06/27 02:52:32;;;;;;;9.15;8.10;;;;;;;;;;5074733;28;20052;-77
2023/06/27 02:54:57;;;;;;;10.40;7.97;;;;;;;;;;5082105;28;20024;-77
2023/06/27 02:57:23;;;;;;;10.88;7.57;;;;;;;;;;5081598;28;20120;-80
2023/06/27 02:59:48;;;;;;;10.23;7.95;;;;;;;;;;5075802;28;20093;-77
2023/06/27 03:02:13;;;;;;;8.55;7.75;;;;;;;;;;5073273;28;20073;-78
2023/06/27 03:04:39;;;;;;;10.30;7.75;;;;;;;;;;5077320;28;20503;-79
2023/06/27 03:07:04;;;;;;;8.85;7.40;;;;;;;;;;5073620;28;20032;-76
2023/06/27 03:09:30;;;;;;;9.35;8.40;;;;;;;;;;5081397;28;20448;-79
2023/06/27 03:11:55;;;;;;;11.35;8.20;;;;;;;;;;5082137;28;20035;-76
2023/06/27 03:14:21;;;;;;;8.90;7.72;;;;;;;;;;5080459;28;20035;-76
2023/06/27 03:16:47;;;;;;;10.43;7.55;;;;;;;;;;5082427;28;20024;-77
2023/06/27 03:19:12;;;;;;;9.77;8.00;;;;;;;;;;5082228;28;20028;-78
2023/06/27 03:21:38;;;;;;;11.70;7.07;;;;;;;;;;5081556;28;20040;-77
2023/06/27 03:24:03;;;;;;;9.90;7.78;;;;;;;;;;5082841;28;20044;-77
2023/06/27 03:26:29;;;;;;;11.82;7.95;;;;;;;;;;5082302;28;20032;-76
2023/06/27 03:28:55;;;;;;;10.35;7.80;;;;;;;;;;5074320;28;20075;-77
2023/06/27 03:31:20;;;;;;;13.07;7.85;;;;;;;;;;5077056;28;20400;-78
2023/06/27 03:33:46;;;;;;;12.45;7.20;;;;;;;;;;5073329;28;20024;-76
2023/06/27 03:36:11;;;;;;;9.60;7.43;;;;;;;;;;5077424;28;20042;-78
2023/06/27 03:38:37;;;;;;;8.35;7.07;;;;;;;;;;5079950;28;20042;-78
2023/06/27 03:41:02;;;;;;;8.73;7.75;;;;;;;;;;5082268;28;20110;-77
2023/06/27 03:43:27;;;;;;;10.48;7.50;;;;;;;;;;5079801;28;20704;-78
2023/06/27 03:45:53;;;;;;;10.75;7.75;;;;;;;;;;5071844;28;20035;-77
2023/06/27 03:48:18;;;;;;;12.35;8.45;;;;;;;;;;5078974;28;20039;-77
2023/06/27 03:50:44;;;;;;;13.93;8.27;;;;;;;;;;5070634;28;20035;-81
2023/06/27 03:53:09;;;;;;;10.40;7.57;;;;;;;;;;5078716;28;20032;-77
2023/06/27 03:55:37;;;;;;;10.38;7.60;;;;;;;;;;5080886;28;20066;-76
2023/06/27 03:58:02;;;;;;;12.98;7.25;;;;;;;;;;5078828;28;20076;-77
2023/06/27 04:00:27;;;;;;;15.75;8.50;;;;;;;;;;5073151;28;20090;-77
2023/06/27 04:02:53;;;;;;;11.73;7.82;;;;;;;;;;5073873;28;20035;-77
2023/06/27 04:05:18;;;;;;;11.80;8.23;;;;;;;;;;5063408;28;20046;-76
2023/06/27 04:07:44;;;;;;;10.73;8.02;;;;;;;;;;5058609;28;20020;-77
2023/06/27 04:10:10;;;;;;;9.55;8.68;;;;;;;;;;5059541;28;20036;-75
2023/06/27 04:12:35;;;;;;;19.40;8.13;;;;;;;;;;5058339;28;20078;-77
2023/06/27 04:15:00;;;;;;;11.70;8.07;;;;;;;;;;5057384;28;21246;-78
2023/06/27 04:17:26;;;;;;;9.35;8.35;;;;;;;;;;5058692;28;20088;-78
2023/06/27 04:19:51;;;;;;;10.82;8.68;;;;;;;;;;5062404;28;20038;-79
2023/06/27 04:22:16;;;;;;;15.50;8.93;;;;;;;;;;5068109;28;20035;-77
2023/06/27 04:24:42;;;;;;;10.80;8.73;;;;;;;;;;5081250;28;20046;-76
2023/06/27 04:27:10;;;;;;;10.10;8.98;;;;;;;;;;5080180;28;20032;-77
2023/06/27 04:29:36;;;;;;;12.48;8.60;;;;;;;;;;5079420;28;20060;-78
2023/06/27 04:32:02;;;;;;;9.95;8.95;;;;;;;;;;5076919;28;20036;-78
2023/06/27 04:34:27;;;;;;;11.35;9.07;;;;;;;;;;5071992;28;20421;-77
2023/06/27 04:36:52;;;;;;;14.40;9.13;;;;;;;;;;5070092;28;20077;-79
2023/06/27 04:39:18;;;;;;;13.02;9.63;;;;;;;;;;5068866;28;20032;-80
2023/06/27 04:41:43;;;;;;;13.25;9.38;;;;;;;;;;5078903;28;20025;-77
2023/06/27 04:44:09;;;;;;;10.55;9.27;;;;;;;;;;5077767;28;20046;-81
2023/06/27 04:46:34;;;;;;;10.65;9.55;;;;;;;;;;5076801;28;20062;-81
2023/06/27 04:49:00;;;;;;;10.52;9.35;;;;;;;;;;5079246;28;20042;-81
2023/06/27 04:51:29;;;;;;;15.02;9.60;;;;;;;;;;5069655;28;20027;-83
2023/06/27 04:53:54;;;;;;;13.30;9.60;;;;;;;;;;5069093;28;20024;-81
2023/06/27 04:56:19;;;;;;;11.07;8.52;;;;;;;;;;5080293;28;20452;-80
2023/06/27 04:58:45;;;;;;;12.45;9.07;;;;;;;;;;5079145;28;20722;-82
2023/06/27 05:01:11;;;;;;;13.70;8.77;;;;;;;;;;5076852;28;20111;-79
2023/06/27 05:03:39;;;;;;;10.50;9.07;;;;;;;;;;5081434;28;20042;-80
2023/06/27 05:06:04;;;;;;;10.35;9.15;;;;;;;;;;5080229;28;20454;-77
2023/06/27 05:08:30;;;;;;;14.02;8.40;;;;;;;;;;5078166;28;20020;-79
2023/06/27 05:10:55;;;;;;;11.00;8.70;;;;;;;;;;5078827;28;20024;-78
2023/06/27 05:13:21;;;;;;;11.45;8.20;;;;;;;;;;5081342;28;20901;-79
2023/06/27 05:15:46;;;;;;;12.60;8.80;;;;;;;;;;5079112;28;20116;-80
2023/06/27 05:18:13;;;;;;;11.27;8.95;;;;;;;;;;5080788;28;20032;-80
2023/06/27 05:20:38;;;;;;;9.65;8.52;;;;;;;;;;5076959;28;20036;-79
2023/06/27 05:23:05;;;;;;;13.52;8.55;;;;;;;;;;5074340;28;20527;-80
2023/06/27 05:25:31;;;;;;;12.05;8.80;;;;;;;;;;5081104;28;20051;-80
2023/06/27 05:27:56;;;;;;;10.75;8.45;;;;;;;;;;5078677;28;20305;-80
2023/06/27 05:30:21;;;;;;;9.15;8.35;;;;;;;;;;5079555;28;20419;-78
2023/06/27 05:32:47;;;;;;;9.57;8.35;;;;;;;;;;5078127;28;20438;-76
2023/06/27 05:35:12;;;;;;;9.07;7.40;;;;;;;;;;5079558;28;20111;-77
2023/06/27 05:37:37;;;;;;;8.55;7.75;;;;;;;;;;5078894;28;20356;-78
2023/06/27 05:40:03;;;;;;;8.30;7.50;;;;;;;;;;5079614;28;20040;-78
2023/06/27 05:42:28;;;;;;;8.77;7.88;;;;;;;;;;5078589;28;20115;-78
2023/06/27 05:44:54;;;;;;;8.73;7.80;;;;;;;;;;5081252;28;20115;-77
2023/06/27 05:47:19;;;;;;;9.50;8.55;;;;;;;;;;5080566;28;20035;-77
2023/06/27 05:49:45;;;;;;;9.20;8.30;;;;;;;;;;5077425;28;20055;-77
2023/06/27 05:52:10;;;;;;;8.55;7.45;;;;;;;;;;5079587;28;20062;-77
2023/06/27 05:54:35;;;;;;;11.18;8.00;;;;;;;;;;5079636;28;20130;-76
2023/06/27 05:57:01;;;;;;;11.35;8.13;;;;;;;;;;5077959;28;20031;-76
2023/06/27 05:59:26;;;;;;;8.88;7.35;;;;;;;;;;5077421;28;20060;-76
2023/06/27 06:01:51;;;;;;;9.18;7.85;;;;;;;;;;5076559;28;20031;-76
2023/06/27 06:04:17;;;;;;;9.55;7.43;;;;;;;;;;5078653;28;20077;-76
2023/06/27 06:06:42;;;;;;;8.02;7.30;;;;;;;;;;5079475;28;20028;-77
2023/06/27 06:09:07;;;;;;;9.50;8.07;;;;;;;;;;5077340;28;20024;-76
2023/06/27 06:11:36;;;;;;;11.55;7.70;;;;;;;;;;5082826;28;20024;-77
2023/06/27 06:14:02;;;;;;;9.27;8.30;;;;;;;;;;5083563;28;20355;-77
2023/06/27 06:16:27;;;;;;;9.35;7.63;;;;;;;;;;5080547;28;20063;-75
2023/06/27 06:18:53;;;;;;;13.40;8.40;;;;;;;;;;5079699;28;20066;-77
2023/06/27 06:21:18;;;;;;;10.35;7.85;;;;;;;;;;5081159;28;20366;-76
2023/06/27 06:23:44;;;;;;;9.15;7.90;;;;;;;;;;5079027;28;20501;-77
2023/06/27 06:26:09;;;;;;;16.73;7.88;;;;;;;;;;5082330;28;20028;-76
2023/06/27 06:28:34;;;;;;;10.52;7.18;;;;;;;;;;5080408;28;20023;-76
2023/06/27 06:31:00;;;;;;;10.32;8.05;;;;;;;;;;5082795;28;20032;-75
2023/06/27 06:33:26;;;;;;;8.82;8.02;;;;;;;;;;5081958;28;20032;-75
2023/06/27 06:35:51;;;;;;;8.48;7.72;;;;;;;;;;5080887;28;20055;-75
2023/06/27 06:38:16;;;;;;;8.32;7.53;;;;;;;;;;5084124;28;20458;-76
2023/06/27 06:40:43;;;;;;;8.32;7.53;;;;;;;;;;5080329;28;20036;-77
2023/06/27 06:43:08;;;;;;;8.43;7.65;;;;;;;;;;5081715;28;20125;-78
2023/06/27 06:45:33;;;;;;;10.00;8.50;;;;;;;;;;5079942;28;20027;-77
2023/06/27 06:47:59;;;;;;;8.93;8.07;;;;;;;;;;5082468;28;20027;-78
2023/06/27 06:50:24;;;;;;;9.65;7.88;;;;;;;;;;5082259;28;20032;-76
2023/06/27 06:52:50;;;;;;;10.65;8.40;;;;;;;;;;5081432;28;20024;-76
2023/06/27 06:55:15;;;;;;;9.45;7.90;;;;;;;;;;5081681;28;20096;-76
2023/06/27 06:57:40;;;;;;;9.38;8.50;;;;;;;;;;5081994;28;20024;-77
2023/06/27 07:00:06;;;;;;;9.02;8.07;;;;;;;;;;5081591;28;20040;-76
2023/06/27 07:02:31;;;;;;;9.30;8.23;;;;;;;;;;5081381;28;20028;-78
2023/06/27 07:04:57;;;;;;;21.77;7.38;;;;;;;;;;5082548;28;20108;-78
2023/06/27 07:07:23;;;;;;;9.60;8.60;;;;;;;;;;5082656;28;20061;-77
2023/06/27 07:09:48;;;;;;;8.40;7.60;;;;;;;;;;5080283;28;21124;-78
2023/06/27 07:12:14;;;;;;;8.95;7.68;;;;;;;;;;5081893;28;20020;-77
2023/06/27 07:14:39;;;;;;;8.60;7.70;;;;;;;;;;5080847;28;20107;-77
2023/06/27 07:17:04;;;;;;;10.77;7.80;;;;;;;;;;5080447;28;20034;-77
2023/06/27 07:19:30;;;;;;;8.82;7.93;;;;;;;;;;5081262;28;20031;-78
2023/06/27 07:21:55;;;;;;;8.05;7.18;;;;;;;;;;5080449;28;20032;-77
2023/06/27 07:24:20;;;;;;;9.10;7.28;;;;;;;;;;5081915;28;20032;-78
2023/06/27 07:26:46;;;;;;;8.57;7.40;;;;;;;;;;5082366;28;20069;-76
2023/06/27 07:29:11;;;;;;;10.60;7.55;;;;;;;;;;5078084;28;20331;-78
2023/06/27 07:31:37;;;;;;;7.70;6.90;;;;;;;;;;5081256;28;20088;-77
2023/06/27 07:34:02;;;;;;;8.20;7.30;;;;;;;;;;5078849;28;20351;-77
2023/06/27 07:36:27;;;;;;;9.30;7.15;;;;;;;;;;5077582;28;20351;-78
2023/06/27 07:38:53;;;;;;;7.05;6.45;;;;;;;;;;5078863;28;20636;-78
2023/06/27 07:41:18;;;;;;;7.53;6.38;;;;;;;;;;5080651;28;20020;-79
2023/06/27 07:43:44;;;;;;;7.18;6.50;;;;;;;;;;5081300;28;20428;-76
2023/06/27 07:46:11;;;;;;;8.27;6.90;;;;;;;;;;5080763;28;20139;-78
2023/06/27 07:48:36;;;;;;;8.20;7.00;;;;;;;;;;5083423;28;20198;-78
2023/06/27 07:51:02;;;;;;;7.75;6.47;;;;;;;;;;5080127;28;20763;-77
2023/06/27 07:53:27;;;;;;;6.90;6.07;;;;;;;;;;5082208;28;20032;-76
2023/06/27 07:55:53;;;;;;;8.35;5.88;;;;;;;;;;5082568;28;20032;-77
2023/06/27 07:58:18;;;;;;;7.25;6.05;;;;;;;;;;5079025;28;20072;-76
2023/06/27 08:00:43;;;;;;;9.70;6.13;;;;;;;;;;5076721;28;20024;-76
2023/06/27 08:03:09;;;;;;;8.32;5.82;;;;;;;;;;5080624;28;20028;-76
2023/06/27 08:05:35;;;;;;;6.55;5.47;;;;;;;;;;5078625;28;20012;-78
2023/06/27 08:08:01;;;;;;;6.38;5.80;;;;;;;;;;5080976;28;20890;-76
2023/06/27 08:10:27;;;;;;;6.60;6.00;;;;;;;;;;5081544;28;20036;-76
2023/06/27 08:12:53;;;;;;;5.88;5.28;;;;;;;;;;5082322;28;20088;-77
2023/06/27 08:15:19;;;;;;;6.97;6.28;;;;;;;;;;5082505;28;20114;-75
2023/06/27 08:17:44;;;;;;;6.07;5.53;;;;;;;;;;5079570;28;20103;-76
2023/06/27 08:20:10;;;;;;;9.30;5.95;;;;;;;;;;5081559;28;20036;-79
2023/06/27 08:22:35;;;;;;;6.55;5.95;;;;;;;;;;5079305;28;20024;-78
2023/06/27 08:25:00;;;;;;;5.85;5.30;;;;;;;;;;5081140;28;20517;-76
2023/06/27 08:27:26;;;;;;;6.47;5.78;;;;;;;;;;5081323;28;20023;-78
2023/06/27 08:29:51;;;;;;;5.68;5.10;;;;;;;;;;5078361;28;20027;-78
2023/06/27 08:32:17;;;;;;;6.13;5.47;;;;;;;;;;5080341;28;20225;-76
2023/06/27 08:34:42;;;;;;;5.90;5.40;;;;;;;;;;5079919;28;20048;-77
2023/06/27 08:37:07;;;;;;;7.97;5.35;;;;;;;;;;5080756;28;20024;-80
2023/06/27 08:39:33;;;;;;;6.13;5.53;;;;;;;;;;5081389;28;20042;-78
2023/06/27 08:41:58;;;;;;;8.68;5.68;;;;;;;;;;5080747;28;20031;-77
2023/06/27 08:44:24;;;;;;;7.25;5.75;;;;;;;;;;5078851;28;20032;-76
2023/06/27 08:46:50;;;;;;;10.43;5.47;;;;;;;;;;5082022;28;20439;-77
2023/06/27 08:49:26;;;;;;;10.43;5.47;;;;;;;;;;5081496;28;21185;-77
2023/06/27 08:51:53;;;;;;;5.32;4.85;;;;;;;;;;5079444;28;20450;-76
2023/06/27 08:54:24;;;;;;;5.75;5.25;;;;;;;;;;5079278;28;20028;-78
2023/06/27 08:56:50;;;;;;;8.77;5.25;;;;;;;;;;5077776;28;20030;-78
2023/06/27 08:59:19;;;;;;;6.10;5.20;;;;;;;;;;5080233;28;20055;-77
2023/06/27 09:01:44;;;;;;;5.30;4.80;;;;;;;;;;5081472;28;20032;-78
2023/06/27 09:04:10;;;;;;;5.93;5.32;;;;;;;;;;5082159;28;20391;-78
2023/06/27 09:06:38;;;;;;;5.75;4.93;;;;;;;;;;5080693;28;20363;-78
2023/06/27 09:09:04;;;;;;;7.88;5.03;;;;;;;;;;5080466;28;20454;-78
2023/06/27 09:11:30;;;;;;;6.00;4.88;;;;;;;;;;5079011;28;20032;-76
2023/06/27 09:13:55;;;;;;;5.60;5.10;;;;;;;;;;5078028;28;20031;-76
2023/06/27 09:16:21;;;;;;;6.95;5.57;;;;;;;;;;5078858;28;20093;-76
2023/06/27 09:18:47;;;;;;;10.88;4.82;;;;;;;;;;5075821;28;20027;-80
2023/06/27 09:21:13;;;;;;;5.95;5.10;;;;;;;;;;5081154;28;20035;-79
2023/06/27 09:23:39;;;;;;;6.75;5.45;;;;;;;;;;5079760;28;20097;-77
2023/06/27 09:26:12;;;;;;;5.93;5.38;;;;;;;;;;5080943;28;21185;-76
2023/06/27 09:28:45;;;;;;;5.82;5.22;;;;;;;;;;5078385;28;20033;-77
2023/06/27 09:31:10;;;;;;;5.68;5.00;;;;;;;;;;5081027;28;20035;-77
2023/06/27 09:33:36;;;;;;;5.43;4.85;;;;;;;;;;5080503;28;20676;-76
2023/06/27 09:36:01;;;;;;;7.85;5.47;;;;;;;;;;5080586;28;20027;-77
2023/06/27 09:38:30;;;;;;;5.53;5.03;;;;;;;;;;5079375;28;20066;-77
2023/06/27 09:41:05;;;;;;;5.80;5.30;;;;;;;;;;5080304;28;20032;-76
2023/06/27 09:43:32;;;;;;;5.35;4.90;;;;;;;;;;5084647;28;20064;-78
2023/06/27 09:45:58;;;;;;;5.38;4.90;;;;;;;;;;5078992;28;20027;-78
2023/06/27 09:48:24;;;;;;;6.88;5.22;;;;;;;;;;5081662;28;20028;-76
2023/06/27 09:50:51;;;;;;;6.80;5.57;;;;;;;;;;5084797;28;20089;-76
2023/06/27 09:53:16;;;;;;;6.05;5.55;;;;;;;;;;5082066;28;20020;-78
2023/06/27 09:55:45;;;;;;;6.95;5.50;;;;;;;;;;5084744;28;20024;-77
2023/06/27 09:58:10;;;;;;;5.72;4.53;;;;;;;;;;5084665;28;20194;-77
2023/06/27 10:00:37;;;;;;;12.63;5.25;;;;;;;;;;5085449;28;20114;-76
2023/06/27 10:03:07;;;;;;;6.15;5.13;;;;;;;;;;5083598;28;20046;-79
2023/06/27 10:05:33;;;;;;;5.88;5.32;;;;;;;;;;5084567;28;20028;-78
2023/06/27 10:07:58;;;;;;;5.28;4.80;;;;;;;;;;5084016;28;20505;-77
2023/06/27 10:10:26;;;;;;;10.15;5.10;;;;;;;;;;5084654;28;20596;-76
2023/06/27 10:12:52;;;;;;;5.28;4.78;;;;;;;;;;5083903;28;20028;-75
2023/06/27 10:15:18;;;;;;;5.32;4.82;;;;;;;;;;5081362;28;20131;-75
2023/06/27 10:17:44;;;;;;;6.68;4.53;;;;;;;;;;5081512;28;20454;-77
2023/06/27 10:20:11;;;;;;;5.97;5.00;;;;;;;;;;5082239;28;20035;-77
2023/06/27 10:22:39;;;;;;;6.88;4.30;;;;;;;;;;5084288;28;20036;-77
2023/06/27 10:25:05;;;;;;;6.60;4.78;;;;;;;;;;5082486;28;20081;-77
2023/06/27 10:27:35;;;;;;;5.78;4.95;;;;;;;;;;5082951;28;20343;-77
2023/06/27 10:30:35;;;;;;;5.05;4.65;;;;;;;;;;5080335;28;20024;-77
2023/06/27 10:33:08;;;;;;;8.55;4.97;;;;;;;;;;5039317;28;20126;-78
2023/06/27 10:35:38;;;;;;;5.72;4.78;;;;;;;;;;5041522;28;20319;-78
2023/06/27 10:38:09;;;;;;;7.72;5.35;;;;;;;;;;5042019;28;20038;-77
2023/06/27 10:40:53;;;;;;;5.10;4.60;;;;;;;;;;5040152;28;20033;-78
2023/06/27 10:43:37;;;;;;;6.63;4.40;;;;;;;;;;5039555;28;20260;-77
2023/06/27 10:46:10;;;;;;;9.07;4.80;;;;;;;;;;5040121;28;20468;-78
2023/06/27 10:48:44;;;;;;;6.55;5.30;;;;;;;;;;5025220;28;20037;-78
2023/06/27 10:51:14;;;;;;;4.75;4.35;;;;;;;;;;5039744;28;20436;-77
2023/06/27 10:53:41;;;;;;;5.15;4.75;;;;;;;;;;5041036;28;20071;-78
2023/06/27 10:56:16;;;;;;;5.35;4.38;;;;;;;;;;5038238;28;20049;-78
2023/06/27 10:58:47;;;;;;;4.47;4.15;;;;;;;;;;5038700;28;20079;-76
2023/06/27 11:01:19;;;;;;;7.38;4.43;;;;;;;;;;5039938;28;20151;-76
2023/06/27 11:03:47;;;;;;;4.15;3.85;;;;;;;;;;5040805;28;20140;-78
2023/06/27 11:06:13;;;;;;;6.43;4.78;;;;;;;;;;5040422;28;20118;-78
2023/06/27 11:08:38;;;;;;;5.25;4.10;;;;;;;;;;5063161;28;20395;-76
2023/06/27 11:11:05;;;;;;;4.60;4.20;;;;;;;;;;5083881;28;20032;-75
2023/06/27 11:13:33;;;;;;;4.80;4.22;;;;;;;;;;5083233;28;20359;-76
2023/06/27 11:15:58;;;;;;;4.47;4.10;;;;;;;;;;5079275;28;20036;-77
2023/06/27 11:18:27;;;;;;;5.78;4.50;;;;;;;;;;5082343;28;20356;-75
2023/06/27 11:20:52;;;;;;;;;;;;;;;;;;5080880;28;20028;-76
2023/06/27 11:23:20;;;;;;;6.83;4.67;;;;;;;;;;5080956;28;19922;-77
2023/06/27 11:25:46;;;;;;;6.25;4.95;;;;;;;;;;5082800;28;20027;-77
2023/06/27 11:28:12;;;;;;;4.85;4.43;;;;;;;;;;5083205;28;20032;-77
2023/06/27 11:30:38;;;;;;;7.78;5.07;;;;;;;;;;5081694;28;20089;-75
2023/06/27 11:33:04;;;;;;;5.18;4.78;;;;;;;;;;5081598;28;20036;-75
2023/06/27 11:35:30;;;;;;;7.45;4.95;;;;;;;;;;5080043;28;20090;-76
2023/06/27 11:37:56;;;;;;;5.53;4.95;;;;;;;;;;5080492;28;20075;-76
2023/06/27 11:40:21;;;;;;;5.03;4.63;;;;;;;;;;5077250;28;20059;-76
2023/06/27 11:42:47;;;;;;;5.32;4.88;;;;;;;;;;5079609;28;20024;-76
2023/06/27 11:45:12;;;;;;;6.30;4.93;;;;;;;;;;5079454;28;20043;-77
2023/06/27 11:47:38;;;;;;;5.15;4.63;;;;;;;;;;5080670;28;20410;-75
2023/06/27 11:50:04;;;;;;;5.57;4.97;;;;;;;;;;5081233;28;20039;-75
2023/06/27 11:52:30;;;;;;;7.65;5.07;;;;;;;;;;5081127;28;20024;-77
2023/06/27 11:54:55;;;;;;;4.88;4.40;;;;;;;;;;5083074;28;20020;-77
2023/06/27 11:57:21;;;;;;;5.25;4.65;;;;;;;;;;5080836;28;20025;-77
2023/06/27 11:59:50;;;;;;;5.90;4.70;;;;;;;;;;5081439;28;20062;-75
2023/06/27 12:02:16;;;;;;;6.00;4.90;;;;;;;;;;5079960;28;20035;-77
2023/06/27 12:04:42;;;;;;;6.35;5.50;;;;;;;;;;5075348;28;20355;-76
2023/06/27 12:07:20;;;;;;;5.28;4.85;;;;;;;;;;5081359;28;20016;-77
2023/06/27 12:09:45;;;;;;;5.78;5.28;;;;;;;;;;5080493;28;20100;-76
2023/06/27 12:12:10;;;;;;;8.00;5.88;;;;;;;;;;5080359;28;20027;-77
2023/06/27 12:14:36;;;;;;;5.45;4.78;;;;;;;;;;5081522;28;20028;-78
2023/06/27 12:17:04;;;;;;;12.43;5.10;;;;;;;;;;5078030;28;20035;-77
2023/06/27 12:19:29;;;;;;;7.87;7.00;;;;;;;;;;5082462;28;20038;-79
2023/06/27 12:21:54;;;;;;;8.35;7.65;;;;;;;;;;5081436;28;20471;-80
2023/06/27 12:24:20;;;;;;;5.05;4.55;;;;;;;;;;5080656;28;20130;-76
2023/06/27 12:26:46;;;;;;;4.93;4.40;;;;;;;;;;5080812;28;20070;-75
2023/06/27 12:29:11;;;;;;;4.47;4.07;;;;;;;;;;5079635;28;20028;-76
2023/06/27 12:31:37;;;;;;;5.28;4.88;;;;;;;;;;5080916;28;20023;-80
2023/06/27 12:34:03;;;;;;;4.93;4.53;;;;;;;;;;5080707;28;20451;-77
2023/06/27 12:36:30;;;;;;;5.10;4.30;;;;;;;;;;5078126;28;20030;-79
2023/06/27 12:38:56;;;;;;;6.80;4.43;;;;;;;;;;5079855;28;20026;-78
2023/06/27 12:41:22;;;;;;;5.13;4.63;;;;;;;;;;5079172;28;20039;-77
2023/06/27 12:43:47;;;;;;;4.28;3.97;;;;;;;;;;5078399;28;20055;-76
2023/06/27 12:46:13;;;;;;;5.28;4.32;;;;;;;;;;5080628;28;20067;-76
2023/06/27 12:48:39;;;;;;;4.60;4.20;;;;;;;;;;5080132;28;20437;-79
2023/06/27 12:51:04;;;;;;;5.43;4.93;;;;;;;;;;5079013;28;20028;-78
2023/06/27 12:53:30;;;;;;;4.82;4.43;;;;;;;;;;5077587;28;20027;-76
2023/06/27 12:55:56;;;;;;;6.30;4.55;;;;;;;;;;5075166;28;20034;-77
2023/06/27 12:58:21;;;;;;;6.53;5.20;;;;;;;;;;5070177;28;20179;-77
2023/06/27 13:00:46;;;;;;;4.90;4.50;;;;;;;;;;5073137;28;20032;-78
2023/06/27 13:03:12;;;;;;;5.00;4.47;;;;;;;;;;5068016;28;20052;-79
2023/06/27 13:05:38;;;;;;;5.22;4.72;;;;;;;;;;5080959;28;20031;-76
2023/06/27 13:08:03;;;;;;;7.82;4.20;;;;;;;;;;5079124;28;20024;-76
2023/06/27 13:10:28;;;;;;;14.60;5.07;;;;;;;;;;5075793;28;20679;-78
2023/06/27 13:12:54;;;;;;;6.53;4.10;;;;;;;;;;5079518;28;20081;-77
2023/06/27 13:15:20;;;;;;;4.85;4.30;;;;;;;;;;5078992;28;20082;-76
2023/06/27 13:17:46;;;;;;;4.93;4.53;;;;;;;;;;5074507;28;20032;-77
2023/06/27 13:20:11;;;;;;;4.18;3.80;;;;;;;;;;5080007;28;20074;-77
2023/06/27 13:22:37;;;;;;;10.98;4.60;;;;;;;;;;5081150;28;20020;-77
2023/06/27 13:25:03;;;;;;;4.78;4.38;;;;;;;;;;5079820;28;20031;-76
2023/06/27 13:27:29;;;;;;;4.40;4.00;;;;;;;;;;5080011;28;20042;-78
2023/06/27 13:29:55;;;;;;;5.35;4.40;;;;;;;;;;5079411;28;20510;-75
2023/06/27 13:32:21;;;;;;;4.15;3.80;;;;;;;;;;5079451;28;20135;-78
2023/06/27 13:34:46;;;;;;;5.50;4.93;;;;;;;;;;5078592;28;20095;-76
2023/06/27 13:37:11;;;;;;;8.98;4.85;;;;;;;;;;5068589;28;20087;-75
2023/06/27 13:39:37;;;;;;;6.15;4.68;;;;;;;;;;5071779;28;20059;-78
2023/06/27 13:42:02;;;;;;;6.13;4.60;;;;;;;;;;5079086;28;21250;-78
2023/06/27 13:44:27;;;;;;;7.63;4.85;;;;;;;;;;5082361;28;21110;-79
2023/06/27 13:46:53;;;;;;;4.93;4.50;;;;;;;;;;5075932;28;20121;-80
2023/06/27 13:49:18;;;;;;;4.85;4.25;;;;;;;;;;5079853;28;20034;-78
2023/06/27 13:51:44;;;;;;;6.57;4.00;;;;;;;;;;5077675;28;20024;-78
2023/06/27 13:54:09;;;;;;;12.30;4.82;;;;;;;;;;5070486;28;20115;-77
2023/06/27 13:56:34;;;;;;;9.38;4.57;;;;;;;;;;5079408;28;20081;-77
2023/06/27 13:59:00;;;;;;;4.82;4.38;;;;;;;;;;5079363;28;20044;-77
2023/06/27 14:01:26;;;;;;;5.28;4.15;;;;;;;;;;5079635;28;20024;-77
2023/06/27 14:03:52;;;;;;;5.03;4.50;;;;;;;;;;5074575;28;20021;-76
2023/06/27 14:06:18;;;;;;;4.30;4.00;;;;;;;;;;5068929;28;20027;-76
2023/06/27 14:08:43;;;;;;;4.35;4.03;;;;;;;;;;5067332;28;20467;-75
2023/06/27 14:11:11;;;;;;;4.38;3.97;;;;;;;;;;5072005;28;20024;-78
2023/06/27 14:13:37;;;;;;;5.30;4.50;;;;;;;;;;5068217;28;20467;-77
2023/06/27 14:16:02;;;;;;;4.43;4.03;;;;;;;;;;5078632;28;20063;-77
2023/06/27 14:18:27;;;;;;;4.43;3.97;;;;;;;;;;5078007;28;20546;-79
2023/06/27 14:20:53;;;;;;;4.70;4.13;;;;;;;;;;5076023;28;20106;-78
2023/06/27 14:23:21;;;;;;;4.00;3.70;;;;;;;;;;5067815;28;20077;-79
2023/06/27 14:25:47;;;;;;;3.78;3.47;;;;;;;;;;5076348;28;20020;-78
2023/06/27 14:28:12;;;;;;;3.90;3.42;;;;;;;;;;5081981;28;20024;-78
2023/06/27 14:30:38;;;;;;;3.83;3.53;;;;;;;;;;5082486;28;20443;-77
2023/06/27 14:33:03;;;;;;;3.70;3.40;;;;;;;;;;5077698;28;20435;-76